sensor_id;sensor_type;location;lat;lon;timestamp;pressure;altitude;pressure_sealevel;temperature;humidity
78990;BME280;68390;52.130;21.218;2023-04-02T00:01:44;99570.44;;;6.48;80.42
78990;BME280;68390;52.130;21.218;2023-04-02T00:04:13;99578.97;;;6.45;79.06
78990;BME280;68390;52.130;21.218;2023-04-02T00:06:40;99579.16;;;6.43;80.07
78990;BME280;68390;52.130;21.218;2023-04-02T00:11:40;99593.59;;;6.44;79.07
78990;BME280;68390;52.130;21.218;2023-04-02T00:14:22;99595.31;;;6.45;79.64
78990;BME280;68390;52.130;21.218;2023-04-02T00:16:50;99603.34;;;6.46;79.72
78990;BME280;68390;52.130;21.218;2023-04-02T00:19:24;99600.97;;;6.43;80.01
78990;BME280;68390;52.130;21.218;2023-04-02T00:21:52;99597.19;;;6.44;80.33
78990;BME280;68390;52.130;21.218;2023-04-02T00:24:20;99611.88;;;6.43;80.56
78990;BME280;68390;52.130;21.218;2023-04-02T00:26:48;99610.16;;;6.42;79.12
78990;BME280;68390;52.130;21.218;2023-04-02T00:29:15;99605.72;;;6.41;79.67
78990;BME280;68390;52.130;21.218;2023-04-02T00:31:43;99612.19;;;6.40;79.08
78990;BME280;68390;52.130;21.218;2023-04-02T00:34:17;99614.06;;;6.40;80.46
78990;BME280;68390;52.130;21.218;2023-04-02T00:36:45;99597.69;;;6.40;80.47
78990;BME280;68390;52.130;21.218;2023-04-02T00:39:23;99600.22;;;6.33;80.71
78990;BME280;68390;52.130;21.218;2023-04-02T00:41:52;99612.81;;;6.34;81.10
78990;BME280;68390;52.130;21.218;2023-04-02T00:44:23;99606.00;;;6.30;80.66
78990;BME280;68390;52.130;21.218;2023-04-02T00:46:54;99617.59;;;6.32;80.89
78990;BME280;68390;52.130;21.218;2023-04-02T00:49:35;99619.63;;;6.30;80.81
78990;BME280;68390;52.130;21.218;2023-04-02T00:52:05;99617.06;;;6.29;80.39
78990;BME280;68390;52.130;21.218;2023-04-02T00:54:38;99624.38;;;6.28;80.67
78990;BME280;68390;52.130;21.218;2023-04-02T00:57:13;99629.16;;;6.26;80.76
78990;BME280;68390;52.130;21.218;2023-04-02T00:59:54;99631.16;;;6.24;80.77
78990;BME280;68390;52.130;21.218;2023-04-02T01:02:27;99634.91;;;6.23;81.77
78990;BME280;68390;52.130;21.218;2023-04-02T01:04:55;99631.34;;;6.22;80.90
78990;BME280;68390;52.130;21.218;2023-04-02T01:07:27;99633.03;;;6.23;80.19
78990;BME280;68390;52.130;21.218;2023-04-02T01:10:18;99637.47;;;6.24;80.75
78990;BME280;68390;52.130;21.218;2023-04-02T01:16:34;99637.13;;;6.19;80.79
78990;BME280;68390;52.130;21.218;2023-04-02T01:19:26;99644.44;;;6.19;80.50
78990;BME280;68390;52.130;21.218;2023-04-02T01:24:42;99644.59;;;6.17;80.85
78990;BME280;68390;52.130;21.218;2023-04-02T01:27:17;99650.53;;;6.13;80.04
78990;BME280;68390;52.130;21.218;2023-04-02T01:29:48;99647.13;;;6.11;79.89
78990;BME280;68390;52.130;21.218;2023-04-02T01:32:18;99645.41;;;6.10;80.70
78990;BME280;68390;52.130;21.218;2023-04-02T01:34:48;99649.16;;;6.09;80.61
78990;BME280;68390;52.130;21.218;2023-04-02T01:45:26;99656.63;;;6.07;80.62
78990;BME280;68390;52.130;21.218;2023-04-02T01:47:53;99659.19;;;6.08;80.23
78990;BME280;68390;52.130;21.218;2023-04-02T01:52:46;99658.34;;;6.08;80.58
78990;BME280;68390;52.130;21.218;2023-04-02T01:55:14;99666.50;;;6.08;79.70
78990;BME280;68390;52.130;21.218;2023-04-02T01:57:45;99669.56;;;6.05;79.31
78990;BME280;68390;52.130;21.218;2023-04-02T02:00:15;99663.41;;;6.03;80.61
78990;BME280;68390;52.130;21.218;2023-04-02T02:02:42;99663.59;;;6.01;81.03
78990;BME280;68390;52.130;21.218;2023-04-02T02:05:15;99664.75;;;5.99;80.79
78990;BME280;68390;52.130;21.218;2023-04-02T02:08:02;99672.22;;;5.97;79.98
78990;BME280;68390;52.130;21.218;2023-04-02T02:10:34;99670.19;;;5.99;80.56
78990;BME280;68390;52.130;21.218;2023-04-02T02:13:00;99671.38;;;5.96;80.64
78990;BME280;68390;52.130;21.218;2023-04-02T02:15:26;99681.41;;;5.96;79.78
78990;BME280;68390;52.130;21.218;2023-04-02T02:18:02;99677.97;;;5.94;79.58
78990;BME280;68390;52.130;21.218;2023-04-02T02:20:29;99682.75;;;5.92;80.08
78990;BME280;68390;52.130;21.218;2023-04-02T02:22:56;99681.19;;;5.89;80.39
78990;BME280;68390;52.130;21.218;2023-04-02T02:25:25;99682.22;;;5.88;80.64
78990;BME280;68390;52.130;21.218;2023-04-02T02:30:32;99692.97;;;5.89;80.27
78990;BME280;68390;52.130;21.218;2023-04-02T02:33:06;99691.25;;;5.88;79.98
78990;BME280;68390;52.130;21.218;2023-04-02T02:35:43;99693.09;;;5.88;80.13
78990;BME280;68390;52.130;21.218;2023-04-02T02:40:57;99695.56;;;5.81;80.45
78990;BME280;68390;52.130;21.218;2023-04-02T02:43:25;99711.91;;;5.81;79.74
78990;BME280;68390;52.130;21.218;2023-04-02T02:45:52;99705.94;;;5.78;79.50
78990;BME280;68390;52.130;21.218;2023-04-02T02:48:23;99717.53;;;5.80;79.73
78990;BME280;68390;52.130;21.218;2023-04-02T02:50:51;99719.41;;;5.79;80.10
78990;BME280;68390;52.130;21.218;2023-04-02T02:53:21;99721.41;;;5.77;79.71
78990;BME280;68390;52.130;21.218;2023-04-02T02:55:51;99719.72;;;5.76;79.68
78990;BME280;68390;52.130;21.218;2023-04-02T02:58:20;99728.03;;;5.75;79.90
78990;BME280;68390;52.130;21.218;2023-04-02T03:00:48;99731.25;;;5.70;80.40
78990;BME280;68390;52.130;21.218;2023-04-02T03:03:16;99740.41;;;5.69;80.20
78990;BME280;68390;52.130;21.218;2023-04-02T03:05:43;99743.59;;;5.65;80.63
78990;BME280;68390;52.130;21.218;2023-04-02T03:08:19;99735.56;;;5.63;80.63
78990;BME280;68390;52.130;21.218;2023-04-02T03:11:04;99741.16;;;5.62;81.05
78990;BME280;68390;52.130;21.218;2023-04-02T03:13:32;99738.78;;;5.59;80.76
78990;BME280;68390;52.130;21.218;2023-04-02T03:16:01;99754.25;;;5.58;81.26
78990;BME280;68390;52.130;21.218;2023-04-02T03:21:17;99744.22;;;5.59;81.25
78990;BME280;68390;52.130;21.218;2023-04-02T03:23:50;99756.28;;;5.56;80.36
78990;BME280;68390;52.130;21.218;2023-04-02T03:29:00;99755.56;;;5.54;80.49
78990;BME280;68390;52.130;21.218;2023-04-02T03:31:36;99760.47;;;5.50;80.31
78990;BME280;68390;52.130;21.218;2023-04-02T03:36:53;99768.63;;;5.50;81.37
78990;BME280;68390;52.130;21.218;2023-04-02T03:39:29;99769.47;;;5.51;81.11
78990;BME280;68390;52.130;21.218;2023-04-02T03:42:19;99783.28;;;5.49;80.05
78990;BME280;68390;52.130;21.218;2023-04-02T03:44:53;99783.56;;;5.46;80.90
78990;BME280;68390;52.130;21.218;2023-04-02T03:47:31;99776.41;;;5.45;81.21
78990;BME280;68390;52.130;21.218;2023-04-02T03:50:10;99791.03;;;5.44;80.87
78990;BME280;68390;52.130;21.218;2023-04-02T03:52:38;99793.91;;;5.43;80.65
78990;BME280;68390;52.130;21.218;2023-04-02T03:55:19;99796.78;;;5.41;80.98
78990;BME280;68390;52.130;21.218;2023-04-02T03:57:52;99794.38;;;5.38;79.98
78990;BME280;68390;52.130;21.218;2023-04-02T04:06:05;99819.56;;;5.40;80.88
78990;BME280;68390;52.130;21.218;2023-04-02T04:08:36;99807.13;;;5.38;80.64
78990;BME280;68390;52.130;21.218;2023-04-02T04:11:11;99821.03;;;5.35;80.51
78990;BME280;68390;52.130;21.218;2023-04-02T04:13:45;99822.03;;;5.34;80.01
78990;BME280;68390;52.130;21.218;2023-04-02T04:16:16;99828.19;;;5.36;80.22
78990;BME280;68390;52.130;21.218;2023-04-02T04:18:49;99827.50;;;5.34;80.35
78990;BME280;68390;52.130;21.218;2023-04-02T04:21:27;99838.53;;;5.32;79.53
78990;BME280;68390;52.130;21.218;2023-04-02T04:24:03;99833.94;;;5.33;80.10
78990;BME280;68390;52.130;21.218;2023-04-02T04:27:05;99838.66;;;5.31;80.37
78990;BME280;68390;52.130;21.218;2023-04-02T04:29:52;99834.56;;;5.27;81.08
78990;BME280;68390;52.130;21.218;2023-04-02T04:32:46;99841.00;;;5.26;80.94
78990;BME280;68390;52.130;21.218;2023-04-02T04:35:32;99835.56;;;5.26;80.45
78990;BME280;68390;52.130;21.218;2023-04-02T04:38:47;99852.19;;;5.23;80.00
78990;BME280;68390;52.130;21.218;2023-04-02T04:41:20;99846.75;;;5.23;80.70
78990;BME280;68390;52.130;21.218;2023-04-02T04:43:55;99858.94;;;5.19;80.81
78990;BME280;68390;52.130;21.218;2023-04-02T04:46:31;99852.09;;;5.14;79.69
78990;BME280;68390;52.130;21.218;2023-04-02T04:49:41;99861.97;;;5.15;80.16
78990;BME280;68390;52.130;21.218;2023-04-02T04:51:51;99868.41;;;5.14;80.59
78990;BME280;68390;52.130;21.218;2023-04-02T04:54:18;99861.97;;;5.15;80.86
78990;BME280;68390;52.130;21.218;2023-04-02T04:56:50;99866.53;;;5.15;80.50
78990;BME280;68390;52.130;21.218;2023-04-02T04:59:28;99871.41;;;5.11;79.84
78990;BME280;68390;52.130;21.218;2023-04-02T05:04:35;99876.88;;;5.11;80.02
78990;BME280;68390;52.130;21.218;2023-04-02T05:07:11;99887.88;;;5.10;79.77
78990;BME280;68390;52.130;21.218;2023-04-02T05:09:44;99884.31;;;5.09;80.01
78990;BME280;68390;52.130;21.218;2023-04-02T05:12:34;99885.16;;;5.10;79.83
78990;BME280;68390;52.130;21.218;2023-04-02T05:15:05;99891.78;;;5.07;78.97
78990;BME280;68390;52.130;21.218;2023-04-02T05:25:33;99916.00;;;5.01;80.28
78990;BME280;68390;52.130;21.218;2023-04-02T05:28:18;99910.88;;;4.98;80.31
78990;BME280;68390;52.130;21.218;2023-04-02T05:30:49;99921.88;;;4.96;79.07
78990;BME280;68390;52.130;21.218;2023-04-02T05:33:29;99927.47;;;4.95;79.54
78990;BME280;68390;52.130;21.218;2023-04-02T05:36:00;99930.34;;;4.93;79.93
78990;BME280;68390;52.130;21.218;2023-04-02T05:38:30;99939.22;;;4.95;79.87
78990;BME280;68390;52.130;21.218;2023-04-02T05:41:06;99939.34;;;4.94;79.54
78990;BME280;68390;52.130;21.218;2023-04-02T05:43:45;99944.94;;;4.92;80.38
78990;BME280;68390;52.130;21.218;2023-04-02T05:46:16;99951.09;;;4.94;80.56
78990;BME280;68390;52.130;21.218;2023-04-02T05:48:43;99951.38;;;4.91;79.66
78990;BME280;68390;52.130;21.218;2023-04-02T05:51:19;99950.97;;;4.86;80.04
78990;BME280;68390;52.130;21.218;2023-04-02T05:53:53;99949.69;;;4.80;78.76
78990;BME280;68390;52.130;21.218;2023-04-02T05:56:24;99954.97;;;4.82;79.05
78990;BME280;68390;52.130;21.218;2023-04-02T05:58:56;99954.56;;;4.77;79.53
78990;BME280;68390;52.130;21.218;2023-04-02T06:01:54;99959.16;;;4.76;79.58
78990;BME280;68390;52.130;21.218;2023-04-02T06:04:26;99964.00;;;4.73;79.47
78990;BME280;68390;52.130;21.218;2023-04-02T06:07:05;99966.13;;;4.69;79.01
78990;BME280;68390;52.130;21.218;2023-04-02T06:09:40;99968.88;;;4.69;79.16
78990;BME280;68390;52.130;21.218;2023-04-02T06:12:30;99966.28;;;4.68;79.55
78990;BME280;68390;52.130;21.218;2023-04-02T06:14:59;99967.88;;;4.70;79.30
78990;BME280;68390;52.130;21.218;2023-04-02T06:17:25;99975.16;;;4.70;79.29
78990;BME280;68390;52.130;21.218;2023-04-02T06:19:52;99984.19;;;4.70;79.24
78990;BME280;68390;52.130;21.218;2023-04-02T06:22:31;99990.47;;;4.71;79.31
78990;BME280;68390;52.130;21.218;2023-04-02T06:25:02;99991.47;;;4.70;79.04
78990;BME280;68390;52.130;21.218;2023-04-02T06:27:30;99999.94;;;4.67;78.79
78990;BME280;68390;52.130;21.218;2023-04-02T06:30:02;100007.25;;;4.66;78.71
78990;BME280;68390;52.130;21.218;2023-04-02T06:32:29;100016.25;;;4.67;79.22
78990;BME280;68390;52.130;21.218;2023-04-02T06:34:55;100011.25;;;4.62;79.52
78990;BME280;68390;52.130;21.218;2023-04-02T06:37:41;100016.25;;;4.67;79.88
78990;BME280;68390;52.130;21.218;2023-04-02T06:42:56;100021.53;;;4.68;79.17
78990;BME280;68390;52.130;21.218;2023-04-02T06:45:28;100017.97;;;4.68;79.31
78990;BME280;68390;52.130;21.218;2023-04-02T06:47:56;100016.25;;;4.67;80.03
78990;BME280;68390;52.130;21.218;2023-04-02T06:52:57;100013.81;;;4.64;79.66
78990;BME280;68390;52.130;21.218;2023-04-02T06:55:46;100010.38;;;4.62;79.33
78990;BME280;68390;52.130;21.218;2023-04-02T06:58:17;100029.28;;;4.63;79.96
78990;BME280;68390;52.130;21.218;2023-04-02T07:00:45;100013.22;;;4.60;79.79
78990;BME280;68390;52.130;21.218;2023-04-02T07:05:42;100038.16;;;4.56;79.88
78990;BME280;68390;52.130;21.218;2023-04-02T07:08:07;100039.56;;;4.50;78.66
78990;BME280;68390;52.130;21.218;2023-04-02T07:10:33;100044.84;;;4.52;80.64
78990;BME280;68390;52.130;21.218;2023-04-02T07:12:58;100047.00;;;4.58;80.35
78990;BME280;68390;52.130;21.218;2023-04-02T07:15:27;100051.56;;;4.57;79.05
78990;BME280;68390;52.130;21.218;2023-04-02T07:17:52;100056.19;;;4.57;78.57
78990;BME280;68390;52.130;21.218;2023-04-02T07:20:33;100066.50;;;4.63;79.69
78990;BME280;68390;52.130;21.218;2023-04-02T07:23:02;100071.78;;;4.64;78.73
78990;BME280;68390;52.130;21.218;2023-04-02T07:25:27;100068.94;;;4.66;78.48
78990;BME280;68390;52.130;21.218;2023-04-02T07:27:54;100075.06;;;4.68;78.94
78990;BME280;68390;52.130;21.218;2023-04-02T07:30:20;100077.66;;;4.69;78.83
78990;BME280;68390;52.130;21.218;2023-04-02T07:32:46;100085.25;;;4.66;78.22
78990;BME280;68390;52.130;21.218;2023-04-02T07:35:11;100085.38;;;4.64;78.36
78990;BME280;68390;52.130;21.218;2023-04-02T07:37:37;100088.66;;;4.68;78.28
78990;BME280;68390;52.130;21.218;2023-04-02T07:40:14;100098.00;;;4.65;78.34
78990;BME280;68390;52.130;21.218;2023-04-02T07:42:40;100100.84;;;4.64;78.09
78990;BME280;68390;52.130;21.218;2023-04-02T07:45:05;100107.41;;;4.61;78.06
78990;BME280;68390;52.130;21.218;2023-04-02T07:47:31;100100.53;;;4.57;77.83
78990;BME280;68390;52.130;21.218;2023-04-02T07:49:56;100103.09;;;4.59;77.61
78990;BME280;68390;52.130;21.218;2023-04-02T07:52:22;100105.13;;;4.57;78.51
78990;BME280;68390;52.130;21.218;2023-04-02T07:54:47;100106.13;;;4.56;77.53
78990;BME280;68390;52.130;21.218;2023-04-02T07:57:13;100113.56;;;4.54;77.68
78990;BME280;68390;52.130;21.218;2023-04-02T07:59:38;100109.50;;;4.48;76.55
78990;BME280;68390;52.130;21.218;2023-04-02T08:02:03;100120.41;;;4.48;77.85
78990;BME280;68390;52.130;21.218;2023-04-02T08:04:30;100110.13;;;4.52;76.64
78990;BME280;68390;52.130;21.218;2023-04-02T08:06:55;100116.84;;;4.57;76.31
78990;BME280;68390;52.130;21.218;2023-04-02T08:09:20;100118.13;;;4.53;76.07
78990;BME280;68390;52.130;21.218;2023-04-02T08:11:46;100122.56;;;4.54;75.83
78990;BME280;68390;52.130;21.218;2023-04-02T08:14:11;100125.59;;;4.61;75.25
78990;BME280;68390;52.130;21.218;2023-04-02T08:16:44;100122.03;;;4.70;75.42
78990;BME280;68390;52.130;21.218;2023-04-02T08:19:10;100143.53;;;4.73;75.69
78990;BME280;68390;52.130;21.218;2023-04-02T08:21:35;100141.06;;;4.70;73.56
78990;BME280;68390;52.130;21.218;2023-04-02T08:24:01;100153.41;;;4.74;74.71
78990;BME280;68390;52.130;21.218;2023-04-02T08:26:28;100153.41;;;4.74;74.59
78990;BME280;68390;52.130;21.218;2023-04-02T08:28:53;100150.41;;;4.77;74.46
78990;BME280;68390;52.130;21.218;2023-04-02T08:31:18;100147.81;;;4.75;73.67
78990;BME280;68390;52.130;21.218;2023-04-02T08:33:44;100147.81;;;4.75;72.81
78990;BME280;68390;52.130;21.218;2023-04-02T08:36:15;100147.53;;;4.78;73.86
78990;BME280;68390;52.130;21.218;2023-04-02T08:38:41;100155.53;;;4.80;74.79
78990;BME280;68390;52.130;21.218;2023-04-02T08:41:07;100162.44;;;4.84;74.71
78990;BME280;68390;52.130;21.218;2023-04-02T08:48:59;100172.75;;;4.90;72.25
78990;BME280;68390;52.130;21.218;2023-04-02T08:51:31;100173.63;;;4.91;74.24
78990;BME280;68390;52.130;21.218;2023-04-02T08:54:23;100184.50;;;4.91;73.03
78990;BME280;68390;52.130;21.218;2023-04-02T08:57:20;100182.50;;;4.93;73.94
78990;BME280;68390;52.130;21.218;2023-04-02T08:59:43;100186.94;;;4.94;73.58
78990;BME280;68390;52.130;21.218;2023-04-02T09:04:45;100195.94;;;4.85;73.68
78990;BME280;68390;52.130;21.218;2023-04-02T09:07:13;100198.53;;;4.86;74.41
78990;BME280;68390;52.130;21.218;2023-04-02T09:09:40;100197.38;;;4.89;74.81
78990;BME280;68390;52.130;21.218;2023-04-02T09:12:16;100204.25;;;4.83;73.53
78990;BME280;68390;52.130;21.218;2023-04-02T09:14:47;100205.09;;;4.84;74.59
78990;BME280;68390;52.130;21.218;2023-04-02T09:17:22;100204.97;;;4.85;74.65
78990;BME280;68390;52.130;21.218;2023-04-02T09:20:16;100217.28;;;4.89;73.71
78990;BME280;68390;52.130;21.218;2023-04-02T09:22:48;100214.56;;;4.89;73.90
78990;BME280;68390;52.130;21.218;2023-04-02T09:25:22;100218.75;;;4.93;74.14
78990;BME280;68390;52.130;21.218;2023-04-02T09:27:49;100209.13;;;4.89;73.65
78990;BME280;68390;52.130;21.218;2023-04-02T09:30:39;100209.13;;;4.89;73.53
78990;BME280;68390;52.130;21.218;2023-04-02T09:33:07;100210.84;;;4.90;73.85
78990;BME280;68390;52.130;21.218;2023-04-02T09:35:52;100217.47;;;4.97;74.45
78990;BME280;68390;52.130;21.218;2023-04-02T09:38:26;100216.03;;;5.03;74.23
78990;BME280;68390;52.130;21.218;2023-04-02T09:41:17;100218.91;;;5.01;73.94
78990;BME280;68390;52.130;21.218;2023-04-02T09:43:43;100227.91;;;5.02;72.47
78990;BME280;68390;52.130;21.218;2023-04-02T09:48:58;100230.09;;;5.08;73.37
78990;BME280;68390;52.130;21.218;2023-04-02T09:51:30;100227.50;;;5.06;74.24
78990;BME280;68390;52.130;21.218;2023-04-02T09:56:27;100241.66;;;5.00;73.12
78990;BME280;68390;52.130;21.218;2023-04-02T10:01:33;100237.94;;;5.01;74.02
78990;BME280;68390;52.130;21.218;2023-04-02T10:04:01;100245.97;;;5.03;73.98
78990;BME280;68390;52.130;21.218;2023-04-02T10:06:28;100247.09;;;5.00;72.94
78990;BME280;68390;52.130;21.218;2023-04-02T10:08:55;100254.56;;;4.98;73.69
78990;BME280;68390;52.130;21.218;2023-04-02T10:11:28;100258.97;;;4.99;74.09
78990;BME280;68390;52.130;21.218;2023-04-02T10:13:57;100261.56;;;5.01;73.80
78990;BME280;68390;52.130;21.218;2023-04-02T10:16:25;100271.59;;;5.00;74.83
78990;BME280;68390;52.130;21.218;2023-04-02T10:18:59;100270.59;;;5.01;74.63
78990;BME280;68390;52.130;21.218;2023-04-02T10:21:27;100267.00;;;5.01;74.05
78990;BME280;68390;52.130;21.218;2023-04-02T10:23:56;100271.31;;;5.03;73.79
78990;BME280;68390;52.130;21.218;2023-04-02T10:26:43;100269.34;;;5.05;74.26
78990;BME280;68390;52.130;21.218;2023-04-02T10:32:50;100289.38;;;5.04;72.75
78990;BME280;68390;52.130;21.218;2023-04-02T10:45:53;100304.25;;;5.00;73.97
78990;BME280;68390;52.130;21.218;2023-04-02T10:51:40;100299.81;;;4.99;73.03
78990;BME280;68390;52.130;21.218;2023-04-02T10:57:30;100315.13;;;5.00;73.75
78990;BME280;68390;52.130;21.218;2023-04-02T11:02:45;100331.94;;;5.05;73.64
78990;BME280;68390;52.130;21.218;2023-04-02T11:05:25;100341.81;;;5.06;74.62
78990;BME280;68390;52.130;21.218;2023-04-02T11:08:00;100347.41;;;5.05;73.95
78990;BME280;68390;52.130;21.218;2023-04-02T11:10:29;100345.78;;;5.02;73.89
78990;BME280;68390;52.130;21.218;2023-04-02T11:13:00;100342.34;;;5.00;73.57
78990;BME280;68390;52.130;21.218;2023-04-02T11:15:28;100347.47;;;4.94;73.14
78990;BME280;68390;52.130;21.218;2023-04-02T11:17:54;100347.63;;;4.92;73.56
78990;BME280;68390;52.130;21.218;2023-04-02T11:23:16;100354.22;;;4.99;74.64
78990;BME280;68390;52.130;21.218;2023-04-02T11:25:43;100352.06;;;4.93;74.58
78990;BME280;68390;52.130;21.218;2023-04-02T11:28:28;100366.06;;;4.89;73.77
78990;BME280;68390;52.130;21.218;2023-04-02T11:30:55;100370.63;;;4.88;74.83
78990;BME280;68390;52.130;21.218;2023-04-02T11:35:58;100387.25;;;4.85;74.78
78990;BME280;68390;52.130;21.218;2023-04-02T11:40:55;100387.50;;;4.82;74.41
78990;BME280;68390;52.130;21.218;2023-04-02T11:46:31;100393.16;;;4.69;75.21
78990;BME280;68390;52.130;21.218;2023-04-02T11:49:40;100400.31;;;4.70;75.25
78990;BME280;68390;52.130;21.218;2023-04-02T12:11:53;100423.19;;;4.68;77.24
78990;BME280;68390;52.130;21.218;2023-04-02T12:17:15;100432.50;;;4.65;78.70
78990;BME280;68390;52.130;21.218;2023-04-02T12:19:49;100428.91;;;4.65;79.20
78990;BME280;68390;52.130;21.218;2023-04-02T12:22:24;100437.53;;;4.70;79.10
78990;BME280;68390;52.130;21.218;2023-04-02T12:24:53;100439.38;;;4.69;80.86
78990;BME280;68390;52.130;21.218;2023-04-02T12:27:23;100446.09;;;4.65;79.95
78990;BME280;68390;52.130;21.218;2023-04-02T12:29:57;100440.53;;;4.67;80.41
78990;BME280;68390;52.130;21.218;2023-04-02T12:32:34;100444.38;;;4.64;80.40
78990;BME280;68390;52.130;21.218;2023-04-02T12:35:00;100446.22;;;4.64;79.98
78990;BME280;68390;52.130;21.218;2023-04-02T12:37:27;100449.47;;;4.58;80.34
78990;BME280;68390;52.130;21.218;2023-04-02T12:40:00;100454.19;;;4.56;79.89
78990;BME280;68390;52.130;21.218;2023-04-02T12:42:32;100443.69;;;4.51;80.02
78990;BME280;68390;52.130;21.218;2023-04-02T12:44:58;100451.84;;;4.51;81.31
78990;BME280;68390;52.130;21.218;2023-04-02T12:47:25;100456.75;;;4.57;82.77
78990;BME280;68390;52.130;21.218;2023-04-02T12:49:51;100466.72;;;4.68;81.82
78990;BME280;68390;52.130;21.218;2023-04-02T12:52:19;100462.75;;;4.72;81.57
78990;BME280;68390;52.130;21.218;2023-04-02T12:54:56;100467.94;;;4.75;80.84
78990;BME280;68390;52.130;21.218;2023-04-02T12:59:52;100464.94;;;4.78;81.45
78990;BME280;68390;52.130;21.218;2023-04-02T13:02:25;100464.53;;;4.83;80.42
78990;BME280;68390;52.130;21.218;2023-04-02T13:04:54;100468.00;;;4.85;82.08
78990;BME280;68390;52.130;21.218;2023-04-02T13:07:22;100478.41;;;4.79;80.87
78990;BME280;68390;52.130;21.218;2023-04-02T13:09:50;100477.81;;;4.76;80.38
78990;BME280;68390;52.130;21.218;2023-04-02T13:12:31;100479.81;;;4.74;80.59
78990;BME280;68390;52.130;21.218;2023-04-02T13:14:58;100483.78;;;4.70;80.86
78990;BME280;68390;52.130;21.218;2023-04-02T13:17:45;100480.19;;;4.69;80.86
78990;BME280;68390;52.130;21.218;2023-04-02T13:20:35;100480.31;;;4.68;81.33
78990;BME280;68390;52.130;21.218;2023-04-02T13:25:56;100486.38;;;4.71;81.46
78990;BME280;68390;52.130;21.218;2023-04-02T13:28:22;100485.13;;;4.75;82.33
78990;BME280;68390;52.130;21.218;2023-04-02T13:30:48;100497.56;;;4.78;82.05
78990;BME280;68390;52.130;21.218;2023-04-02T13:33:14;100494.53;;;4.71;81.26
78990;BME280;68390;52.130;21.218;2023-04-02T13:35:40;100497.97;;;4.73;81.46
78990;BME280;68390;52.130;21.218;2023-04-02T13:38:07;100502.31;;;4.76;81.98
78990;BME280;68390;52.130;21.218;2023-04-02T13:40:33;100502.75;;;4.81;81.25
78990;BME280;68390;52.130;21.218;2023-04-02T13:43:00;100504.28;;;4.74;80.48
78990;BME280;68390;52.130;21.218;2023-04-02T13:45:30;100508.75;;;4.75;80.68
78990;BME280;68390;52.130;21.218;2023-04-02T13:47:56;100512.81;;;4.69;80.57
78990;BME280;68390;52.130;21.218;2023-04-02T13:50:25;100519.13;;;4.70;81.19
78990;BME280;68390;52.130;21.218;2023-04-02T13:52:52;100520.41;;;4.66;81.11
78990;BME280;68390;52.130;21.218;2023-04-02T13:55:20;100516.53;;;4.68;82.44
78990;BME280;68390;52.130;21.218;2023-04-02T13:57:46;100515.22;;;4.63;81.97
78990;BME280;68390;52.130;21.218;2023-04-02T14:00:12;100517.06;;;4.62;80.87
78990;BME280;68390;52.130;21.218;2023-04-02T14:02:41;100511.75;;;4.61;81.27
78990;BME280;68390;52.130;21.218;2023-04-02T14:08:10;100520.44;;;4.55;80.58
78990;BME280;68390;52.130;21.218;2023-04-02T14:14:04;100517.72;;;4.55;82.69
78990;BME280;68390;52.130;21.218;2023-04-02T14:27:26;100552.47;;;4.51;81.58
78990;BME280;68390;52.130;21.218;2023-04-02T14:35:32;100558.78;;;4.40;81.12
78990;BME280;68390;52.130;21.218;2023-04-02T14:38:08;100559.78;;;4.39;81.03
78990;BME280;68390;52.130;21.218;2023-04-02T14:40:47;100563.59;;;4.37;81.51
78990;BME280;68390;52.130;21.218;2023-04-02T14:43:30;100572.91;;;4.34;81.46
78990;BME280;68390;52.130;21.218;2023-04-02T14:45:58;100568.56;;;4.32;81.25
78990;BME280;68390;52.130;21.218;2023-04-02T14:48:44;100574.88;;;4.32;81.82
78990;BME280;68390;52.130;21.218;2023-04-02T14:56:53;100588.47;;;4.32;81.82
78990;BME280;68390;52.130;21.218;2023-04-02T14:59:35;100586.84;;;4.30;81.47
78990;BME280;68390;52.130;21.218;2023-04-02T15:02:08;100585.13;;;4.29;82.66
78990;BME280;68390;52.130;21.218;2023-04-02T15:04:45;100595.41;;;4.25;82.25
78990;BME280;68390;52.130;21.218;2023-04-02T15:07:21;100598.50;;;4.21;81.77
78990;BME280;68390;52.130;21.218;2023-04-02T15:09:53;100609.00;;;4.14;81.43
78990;BME280;68390;52.130;21.218;2023-04-02T15:12:28;100609.00;;;4.14;82.32
78990;BME280;68390;52.130;21.218;2023-04-02T15:15:06;100613.69;;;4.12;82.28
78990;BME280;68390;52.130;21.218;2023-04-02T15:17:37;100618.63;;;4.07;82.82
78990;BME280;68390;52.130;21.218;2023-04-02T15:20:15;100621.22;;;4.09;82.17
78990;BME280;68390;52.130;21.218;2023-04-02T15:22:51;100616.66;;;4.09;82.69
78990;BME280;68390;52.130;21.218;2023-04-02T15:25:44;100616.66;;;4.09;83.25
78990;BME280;68390;52.130;21.218;2023-04-02T15:30:53;100616.41;;;4.01;83.16
78990;BME280;68390;52.130;21.218;2023-04-02T15:36:18;100630.00;;;3.90;82.26
78990;BME280;68390;52.130;21.218;2023-04-02T15:39:06;100634.41;;;3.80;82.06
78990;BME280;68390;52.130;21.218;2023-04-02T15:41:40;100638.88;;;3.81;83.52
78990;BME280;68390;52.130;21.218;2023-04-02T15:44:15;100644.53;;;3.78;82.86
78990;BME280;68390;52.130;21.218;2023-04-02T15:49:53;100646.03;;;3.71;83.18
78990;BME280;68390;52.130;21.218;2023-04-02T15:52:39;100652.88;;;3.63;82.89
78990;BME280;68390;52.130;21.218;2023-04-02T15:58:23;100662.06;;;3.62;82.91
78990;BME280;68390;52.130;21.218;2023-04-02T16:07:00;100679.78;;;3.55;83.59
78990;BME280;68390;52.130;21.218;2023-04-02T16:09:42;100680.38;;;3.48;83.05
78990;BME280;68390;52.130;21.218;2023-04-02T16:12:18;100696.03;;;3.44;83.39
78990;BME280;68390;52.130;21.218;2023-04-02T16:14:46;100704.94;;;3.46;83.59
78990;BME280;68390;52.130;21.218;2023-04-02T16:17:17;100708.03;;;3.42;83.11
78990;BME280;68390;52.130;21.218;2023-04-02T16:20:00;100713.03;;;3.35;83.60
78990;BME280;68390;52.130;21.218;2023-04-02T16:22:30;100727.06;;;3.29;83.95
78990;BME280;68390;52.130;21.218;2023-04-02T16:25:16;100726.09;;;3.30;83.80